Lake Park, FL (33403)

8:10 PM EDT on July 29, 2015 (GMT -0400)
Rybovich Boat Company | | Change Station
CLOSE
Current Station
Personal Weather Station
Location: West Palm Beach, FL
Elevation: 10 ft
Nearby Weather Stations

Elev 10 ft 26.75 °N, 80.05 °W | Updated 55 seconds ago

Mostly Cloudy
Mostly Cloudy
80.1 °F
Feels Like 86 °F
N
3.0
Wind Variable Wind from SSW
Gusts 6.0 mph

Today
High -- | Low -- °F
--% Chance of Precip.
Yesterday
High -- | Low -- °F
Precip. -- in
6:43 AM 8:09 PM
Waxing Gibbous, 97% visible
Pressure 29.98 in
Visibility 10.0 miles
Clouds Few 4500 ft
Scattered Clouds 12000 ft
Mostly Cloudy 20000 ft
Heat Index 86 °F
Dew Point 76 °F
Humidity 89%
Rainfall 0.11 in
Snow Depth Not available.
UV 0 out of 12
Pollen 3.20 out of 12
Air Quality Not available.
Flu Activity Not available.
METAR KPBI 292353Z 27004KT 10SM FEW045 SCT120 BKN200 27/24 A2998 RMK AO2 SLP151 60003 T02720239 10311 20239 55004 $

More Conditions Fewer Conditions

Pressure 29.98 in
Visibility 10.0 miles
Clouds Few 4500 ft
Scattered Clouds 12000 ft
Mostly Cloudy 20000 ft
Heat Index 86 °F
Dew Point 76 °F
Humidity 89%
Rainfall 0.11 in
Snow Depth Not available.
UV 0 out of 12
Pollen 3.20 out of 12
Air Quality Not available.
Flu Activity Not available.
METAR KPBI 292353Z 27004KT 10SM FEW045 SCT120 BKN200 27/24 A2998 RMK AO2 SLP151 60003 T02720239 10311 20239 55004 $

More Conditions Fewer Conditions

10-Day Weather Forecast

×

Almanac

Astronomy

Jul. 29, 2015 Rise Set
Actual Time
Civil Twilight
Nautical Twilight
Astronomical Twilight
Moon
Length of Visible Light
Length of Day
Tomorrow will be .
, % of the Moon is Illuminated

Today's Extremes

State Highs State Lows

Community

WunderPhotos

Upload Photos

1,842,204 photos uploaded!

WunderBlogs® & News

Nearby

Air Quality

  Air Quality AQ Index Pollutant
Not available.

Snow Depth

Station Depth Elevation

Earthquake Activity

City Distance Mag. Time & Date
Minimum magnitude displayed is 2.5.

Coastal Water Temperatures

Place Temperature

Stations

Nearby Weather Stations

Station Location Temp. Windchill Dew Point Humidity Wind Precip. Elev Updated Type